Time;durP1;ratioP1;P1;durP2;ratioP2;P2;SDS_P1;SDS_P2;PMS_P1;PMS_P2;Temp;Humidity;BMP_temperature;BMP_pressure;BME280_temperature;BME280_humidity;BME280_pressure;Samples;Min_cycle;Max_cycle;Signal;HPM_P1;HPM_P2
2024/03/30 00:00:39;;;;;;;4.43;1.23;;;;;;;;;;6215160;23;20466;-94
2024/03/30 00:03:04;;;;;;;4.30;1.23;;;;;;;;;;6213912;23;20337;-94
2024/03/30 00:05:29;;;;;;;6.55;2.03;;;;;;;;;;6214415;23;20000;-94
2024/03/30 00:07:54;;;;;;;8.93;1.77;;;;;;;;;;6188949;23;20004;-93
2024/03/30 00:10:19;;;;;;;13.25;2.13;;;;;;;;;;6212800;23;20008;-93
2024/03/30 00:12:48;;;;;;;7.47;1.70;;;;;;;;;;6214286;23;20427;-93
2024/03/30 00:15:13;;;;;;;18.92;3.22;;;;;;;;;;6214515;23;20016;-93
2024/03/30 00:17:39;;;;;;;9.38;1.40;;;;;;;;;;6213378;23;20000;-92
2024/03/30 00:20:05;;;;;;;10.90;1.83;;;;;;;;;;6214348;23;20457;-93
2024/03/30 00:22:31;;;;;;;10.63;1.27;;;;;;;;;;6213858;23;20003;-93
2024/03/30 00:24:56;;;;;;;10.35;1.77;;;;;;;;;;6213081;23;20000;-93
2024/03/30 00:27:21;;;;;;;8.40;1.50;;;;;;;;;;6214704;23;20234;-93
2024/03/30 00:29:47;;;;;;;13.07;2.28;;;;;;;;;;6214332;23;20304;-93
2024/03/30 00:32:12;;;;;;;9.93;1.75;;;;;;;;;;6214820;23;19993;-94
2024/03/30 00:34:37;;;;;;;10.63;1.35;;;;;;;;;;6214536;23;20324;-94
2024/03/30 00:37:03;;;;;;;9.83;1.40;;;;;;;;;;6215689;23;20003;-94
2024/03/30 00:39:28;;;;;;;7.10;1.58;;;;;;;;;;6188923;23;20310;-94
2024/03/30 00:41:53;;;;;;;6.80;1.38;;;;;;;;;;6215639;23;20469;-94
2024/03/30 00:44:19;;;;;;;10.63;1.65;;;;;;;;;;6214570;23;20375;-94
2024/03/30 00:46:44;;;;;;;9.77;1.58;;;;;;;;;;6214793;23;20045;-94
2024/03/30 00:49:09;;;;;;;7.80;1.25;;;;;;;;;;6215905;23;20084;-93
2024/03/30 00:51:35;;;;;;;4.63;1.00;;;;;;;;;;6214493;23;20000;-94
2024/03/30 00:54:00;;;;;;;6.63;1.08;;;;;;;;;;6214244;23;20096;-94
2024/03/30 00:56:29;;;;;;;6.80;0.85;;;;;;;;;;6213466;23;20339;-93
2024/03/30 00:58:54;;;;;;;5.68;1.10;;;;;;;;;;6213639;23;20562;-94
2024/03/30 01:01:21;;;;;;;8.02;1.30;;;;;;;;;;6214140;23;20035;-94
2024/03/30 01:03:46;;;;;;;6.82;1.40;;;;;;;;;;6213437;23;19996;-94
2024/03/30 01:06:11;;;;;;;7.45;1.20;;;;;;;;;;6213966;23;19996;-94
2024/03/30 01:08:36;;;;;;;4.40;1.17;;;;;;;;;;6214520;23;20009;-93
2024/03/30 01:11:02;;;;;;;8.68;1.42;;;;;;;;;;6214443;23;20078;-93
2024/03/30 01:13:29;;;;;;;5.03;0.90;;;;;;;;;;6214148;23;19985;-93
2024/03/30 01:15:54;;;;;;;7.15;1.77;;;;;;;;;;6214115;23;20004;-93
2024/03/30 01:18:20;;;;;;;5.82;1.13;;;;;;;;;;6215679;23;19993;-94
2024/03/30 01:20:45;;;;;;;6.05;1.52;;;;;;;;;;6214106;23;20043;-93
2024/03/30 01:23:10;;;;;;;9.70;1.17;;;;;;;;;;6214032;23;19997;-92
2024/03/30 01:25:36;;;;;;;9.95;1.27;;;;;;;;;;6215259;23;19996;-95
2024/03/30 01:28:02;;;;;;;8.55;1.13;;;;;;;;;;6213807;23;20007;-95
2024/03/30 01:30:27;;;;;;;9.23;1.60;;;;;;;;;;6214085;23;20008;-93
2024/03/30 01:32:52;;;;;;;9.23;1.52;;;;;;;;;;6215534;23;20008;-94
2024/03/30 01:35:18;;;;;;;6.85;1.33;;;;;;;;;;6214553;23;20378;-95
2024/03/30 01:37:43;;;;;;;6.90;1.30;;;;;;;;;;6214281;23;19996;-94
2024/03/30 01:40:08;;;;;;;9.85;1.10;;;;;;;;;;6214496;23;19996;-95
2024/03/30 01:42:35;;;;;;;5.43;1.33;;;;;;;;;;6213249;23;20431;-94
2024/03/30 01:45:00;;;;;;;6.93;1.08;;;;;;;;;;6213947;23;20001;-93
2024/03/30 01:47:26;;;;;;;8.90;1.35;;;;;;;;;;6214299;23;20011;-93
2024/03/30 01:49:52;;;;;;;5.90;1.58;;;;;;;;;;6214134;23;20099;-94
2024/03/30 01:52:19;;;;;;;14.18;0.98;;;;;;;;;;6214299;23;20051;-93
2024/03/30 01:54:44;;;;;;;9.40;1.00;;;;;;;;;;6214519;23;20099;-94
2024/03/30 01:57:09;;;;;;;4.40;1.00;;;;;;;;;;6214947;23;20463;-95
2024/03/30 01:59:35;;;;;;;9.30;1.65;;;;;;;;;;6214331;23;20335;-94
2024/03/30 02:02:01;;;;;;;10.88;1.80;;;;;;;;;;6213900;23;19996;-94
2024/03/30 02:04:26;;;;;;;12.10;2.63;;;;;;;;;;6214120;23;20070;-94
2024/03/30 02:06:52;;;;;;;5.13;0.98;;;;;;;;;;6189155;23;19993;-94
2024/03/30 02:09:17;;;;;;;6.03;1.10;;;;;;;;;;6213696;23;20001;-94
2024/03/30 02:11:42;;;;;;;10.68;1.33;;;;;;;;;;6214257;23;20011;-94
2024/03/30 02:14:08;;;;;;;5.20;1.05;;;;;;;;;;6214182;23;19984;-94
2024/03/30 02:16:35;;;;;;;5.97;1.05;;;;;;;;;;6214110;23;19996;-94
2024/03/30 02:19:00;;;;;;;5.38;0.90;;;;;;;;;;6214319;23;20000;-94
2024/03/30 02:21:25;;;;;;;9.50;1.15;;;;;;;;;;6212830;23;20398;-95
2024/03/30 02:23:50;;;;;;;4.22;0.60;;;;;;;;;;6214127;23;20024;-95
2024/03/30 02:26:16;;;;;;;3.17;0.95;;;;;;;;;;6213633;23;20001;-94
2024/03/30 02:28:42;;;;;;;5.00;1.40;;;;;;;;;;6213883;23;20047;-94
2024/03/30 02:31:07;;;;;;;9.23;1.42;;;;;;;;;;6213892;23;20438;-95
2024/03/30 02:33:33;;;;;;;5.10;1.15;;;;;;;;;;6214209;23;20344;-95
2024/03/30 02:35:58;;;;;;;13.30;1.58;;;;;;;;;;6214046;23;20003;-95
2024/03/30 02:38:23;;;;;;;8.35;1.25;;;;;;;;;;6214487;23;20011;-94
2024/03/30 02:40:51;;;;;;;4.82;1.17;;;;;;;;;;6214068;23;20003;-94
2024/03/30 02:43:17;;;;;;;9.60;1.20;;;;;;;;;;6188268;23;19997;-93
2024/03/30 02:45:42;;;;;;;5.93;2.03;;;;;;;;;;6213325;23;20011;-94
2024/03/30 02:48:07;;;;;;;8.30;1.00;;;;;;;;;;6213250;23;20088;-95
2024/03/30 02:50:32;;;;;;;3.25;1.00;;;;;;;;;;6213532;23;20422;-95
2024/03/30 02:52:58;;;;;;;3.40;0.90;;;;;;;;;;6213798;23;20007;-95
2024/03/30 02:55:23;;;;;;;4.15;0.70;;;;;;;;;;6213537;23;20000;-95
2024/03/30 02:57:48;;;;;;;4.72;0.57;;;;;;;;;;6213704;23;19997;-94
2024/03/30 03:00:13;;;;;;;5.18;0.90;;;;;;;;;;6215354;23;20369;-95
2024/03/30 03:02:38;;;;;;;6.15;0.98;;;;;;;;;;6215642;23;20381;-94
2024/03/30 03:05:04;;;;;;;8.90;0.98;;;;;;;;;;6215627;23;20001;-94
2024/03/30 03:07:29;;;;;;;7.78;1.17;;;;;;;;;;6215173;23;20094;-95
2024/03/30 03:09:54;;;;;;;11.15;1.02;;;;;;;;;;6215779;23;20012;-94
2024/03/30 03:12:19;;;;;;;5.07;0.67;;;;;;;;;;6214592;23;20001;-96
2024/03/30 03:14:45;;;;;;;6.17;1.03;;;;;;;;;;6190397;23;20245;-94
2024/03/30 03:17:10;;;;;;;6.47;1.17;;;;;;;;;;6215271;23;20241;-96
2024/03/30 03:19:35;;;;;;;8.57;2.07;;;;;;;;;;6215531;23;20631;-94
2024/03/30 03:22:00;;;;;;;8.43;0.80;;;;;;;;;;6215706;23;20736;-94
2024/03/30 03:24:25;;;;;;;8.60;0.90;;;;;;;;;;6215538;23;20377;-94
2024/03/30 03:26:51;;;;;;;5.60;0.80;;;;;;;;;;6214720;23;20306;-94
2024/03/30 03:29:16;;;;;;;5.00;0.70;;;;;;;;;;6214939;23;20285;-95
2024/03/30 03:31:41;;;;;;;8.00;0.80;;;;;;;;;;6215077;23;20257;-93
2024/03/30 03:34:06;;;;;;;5.20;1.03;;;;;;;;;;6214597;23;20265;-93
2024/03/30 03:36:31;;;;;;;9.55;1.02;;;;;;;;;;6215444;23;20215;-94
2024/03/30 03:38:57;;;;;;;3.08;0.88;;;;;;;;;;6215446;23;20011;-94
2024/03/30 03:41:22;;;;;;;7.82;1.45;;;;;;;;;;6214593;23;20001;-94
2024/03/30 03:43:47;;;;;;;7.37;1.13;;;;;;;;;;6215216;23;20008;-95
2024/03/30 03:46:12;;;;;;;6.93;0.73;;;;;;;;;;6215977;23;20676;-95
2024/03/30 03:48:38;;;;;;;11.17;0.93;;;;;;;;;;6216200;23;20028;-95
2024/03/30 03:51:03;;;;;;;6.55;0.75;;;;;;;;;;6214863;23;20237;-94
2024/03/30 03:53:28;;;;;;;9.88;2.72;;;;;;;;;;6215173;23;20024;-95
2024/03/30 03:55:53;;;;;;;9.77;1.20;;;;;;;;;;6214919;23;20031;-94
2024/03/30 03:58:19;;;;;;;6.28;1.90;;;;;;;;;;6215107;23;20219;-95
2024/03/30 04:00:44;;;;;;;7.47;1.00;;;;;;;;;;6214831;23;20000;-93
2024/03/30 04:03:09;;;;;;;5.40;0.90;;;;;;;;;;6215359;23;20004;-95
2024/03/30 04:05:35;;;;;;;6.45;0.73;;;;;;;;;;6215514;23;20084;-94
2024/03/30 04:08:00;;;;;;;4.13;0.63;;;;;;;;;;6215591;23;20012;-95
2024/03/30 04:10:25;;;;;;;7.78;2.33;;;;;;;;;;6213867;23;20008;-95
2024/03/30 04:12:50;;;;;;;6.68;0.90;;;;;;;;;;6215217;23;20085;-95
2024/03/30 04:15:16;;;;;;;3.20;0.60;;;;;;;;;;6214911;23;20015;-95
2024/03/30 04:17:41;;;;;;;5.05;1.30;;;;;;;;;;6215165;23;20043;-94
2024/03/30 04:20:07;;;;;;;3.95;0.50;;;;;;;;;;6215168;23;20079;-94
2024/03/30 04:22:32;;;;;;;10.27;1.40;;;;;;;;;;6215159;23;19993;-95
2024/03/30 04:24:58;;;;;;;7.10;1.85;;;;;;;;;;6215144;23;20008;-94
2024/03/30 04:27:23;;;;;;;8.15;1.20;;;;;;;;;;6215129;23;19997;-95
2024/03/30 04:29:48;;;;;;;5.63;0.80;;;;;;;;;;6214848;23;20107;-94
2024/03/30 04:32:13;;;;;;;6.82;1.38;;;;;;;;;;6214711;23;20222;-95
2024/03/30 04:34:40;;;;;;;8.07;0.77;;;;;;;;;;6215084;23;20004;-94
2024/03/30 04:37:05;;;;;;;10.27;1.00;;;;;;;;;;6215379;23;19996;-94
2024/03/30 04:39:30;;;;;;;5.82;0.80;;;;;;;;;;6214651;23;20424;-95
2024/03/30 04:41:57;;;;;;;3.33;0.60;;;;;;;;;;6215162;23;20001;-95
2024/03/30 04:44:23;;;;;;;5.22;0.98;;;;;;;;;;6216311;23;20000;-95
2024/03/30 04:46:48;;;;;;;6.27;1.00;;;;;;;;;;6213755;23;20087;-94
2024/03/30 04:49:13;;;;;;;9.70;1.80;;;;;;;;;;6216650;23;20304;-94
2024/03/30 04:51:38;;;;;;;2.53;0.73;;;;;;;;;;6189756;23;20549;-94
2024/03/30 04:54:03;;;;;;;10.95;0.95;;;;;;;;;;6214555;23;20573;-93
2024/03/30 04:56:29;;;;;;;5.70;1.55;;;;;;;;;;6214743;23;20312;-94
2024/03/30 04:58:54;;;;;;;6.37;0.93;;;;;;;;;;6214404;23;20004;-94
2024/03/30 05:01:19;;;;;;;6.80;1.02;;;;;;;;;;6214601;23;20222;-94
2024/03/30 05:03:44;;;;;;;6.95;0.98;;;;;;;;;;6214404;23;19997;-94
2024/03/30 05:06:10;;;;;;;6.65;1.02;;;;;;;;;;6213479;23;20087;-95
2024/03/30 05:08:35;;;;;;;7.00;1.30;;;;;;;;;;6215442;23;20023;-94
2024/03/30 05:11:00;;;;;;;3.88;0.75;;;;;;;;;;6214365;23;20001;-94
2024/03/30 05:13:25;;;;;;;4.15;0.73;;;;;;;;;;6215846;23;20087;-94
2024/03/30 05:15:50;;;;;;;4.68;1.05;;;;;;;;;;6215417;23;20001;-95
2024/03/30 05:18:17;;;;;;;5.82;1.20;;;;;;;;;;6214947;23;19993;-94
2024/03/30 05:20:53;;;;;;;8.27;2.03;;;;;;;;;;6214233;23;20001;-94
2024/03/30 05:23:21;;;;;;;11.77;1.98;;;;;;;;;;6214139;23;20133;-94
2024/03/30 05:25:47;;;;;;;3.97;0.77;;;;;;;;;;6188798;23;20546;-93
2024/03/30 05:28:13;;;;;;;4.05;0.80;;;;;;;;;;6214188;23;20013;-94
2024/03/30 05:30:39;;;;;;;5.07;0.80;;;;;;;;;;6214888;23;20047;-94
2024/03/30 05:33:04;;;;;;;4.20;0.82;;;;;;;;;;6214906;23;20353;-93
2024/03/30 05:35:29;;;;;;;9.40;1.65;;;;;;;;;;6213915;23;20058;-94
2024/03/30 05:37:54;;;;;;;8.25;1.23;;;;;;;;;;6214660;23;20003;-93
2024/03/30 05:40:19;;;;;;;5.57;0.85;;;;;;;;;;6214222;23;20000;-94
2024/03/30 05:42:45;;;;;;;5.87;1.30;;;;;;;;;;6213851;23;20004;-94
2024/03/30 05:45:10;;;;;;;8.03;1.83;;;;;;;;;;6214224;23;20230;-93
2024/03/30 05:47:35;;;;;;;7.05;0.85;;;;;;;;;;6214337;23;20301;-94
2024/03/30 05:50:01;;;;;;;4.97;1.00;;;;;;;;;;6215586;23;20031;-93
2024/03/30 05:52:26;;;;;;;8.68;1.25;;;;;;;;;;6214242;23;20221;-94
2024/03/30 05:54:51;;;;;;;5.15;1.30;;;;;;;;;;6213999;23;20000;-95
2024/03/30 05:57:16;;;;;;;4.07;0.80;;;;;;;;;;6214057;23;20091;-94
2024/03/30 05:59:42;;;;;;;6.53;1.30;;;;;;;;;;6189232;23;20062;-95
2024/03/30 06:02:07;;;;;;;6.50;1.48;;;;;;;;;;6213934;23;20498;-94
2024/03/30 06:04:32;;;;;;;3.17;0.97;;;;;;;;;;6212937;23;20043;-94
2024/03/30 06:06:57;;;;;;;7.03;1.80;;;;;;;;;;6215586;23;20214;-95
2024/03/30 06:09:23;;;;;;;6.72;1.02;;;;;;;;;;6213943;23;20254;-95
2024/03/30 06:11:49;;;;;;;5.95;1.33;;;;;;;;;;6214761;23;20000;-95
2024/03/30 06:14:14;;;;;;;4.97;1.00;;;;;;;;;;6214400;23;20078;-96
2024/03/30 06:16:39;;;;;;;10.97;1.40;;;;;;;;;;6213783;23;20333;-95
2024/03/30 06:19:04;;;;;;;6.18;1.23;;;;;;;;;;6213620;23;20276;-95
2024/03/30 06:21:30;;;;;;;2.80;0.83;;;;;;;;;;6213728;23;20008;-95
2024/03/30 06:23:55;;;;;;;6.23;1.40;;;;;;;;;;6214022;23;20223;-95
2024/03/30 06:26:20;;;;;;;9.35;1.33;;;;;;;;;;6213969;23;20223;-95
2024/03/30 06:28:46;;;;;;;11.90;1.30;;;;;;;;;;6213860;23;20011;-95
2024/03/30 06:31:11;;;;;;;8.40;0.98;;;;;;;;;;6214148;23;20252;-96
2024/03/30 06:33:36;;;;;;;4.38;0.90;;;;;;;;;;6213966;23;20007;-95
2024/03/30 06:36:02;;;;;;;5.77;1.17;;;;;;;;;;6215243;23;20004;-96
2024/03/30 06:38:27;;;;;;;7.10;1.17;;;;;;;;;;6215394;23;20219;-95
2024/03/30 06:43:42;;;;;;;7.55;3.15;;;;;;;;;;6218255;23;20062;-95
2024/03/30 06:46:11;;;;;;;7.97;1.02;;;;;;;;;;6215857;23;20008;-95
2024/03/30 06:48:36;;;;;;;12.90;1.63;;;;;;;;;;6215018;23;19997;-95
2024/03/30 06:51:02;;;;;;;5.50;1.05;;;;;;;;;;6215374;23;20011;-94
2024/03/30 06:53:28;;;;;;;6.15;1.00;;;;;;;;;;6215817;23;20481;-96
2024/03/30 06:55:54;;;;;;;9.15;0.90;;;;;;;;;;6215575;23;20076;-95
2024/03/30 06:58:19;;;;;;;7.63;1.13;;;;;;;;;;6215837;23;20012;-95
2024/03/30 07:00:44;;;;;;;10.70;1.40;;;;;;;;;;6216668;23;20108;-95
2024/03/30 07:03:09;;;;;;;8.07;1.03;;;;;;;;;;6216004;23;20168;-96
2024/03/30 07:05:37;;;;;;;9.93;1.30;;;;;;;;;;6217026;23;20235;-96
2024/03/30 07:08:03;;;;;;;9.73;1.05;;;;;;;;;;6218072;23;20003;-96
2024/03/30 07:10:28;;;;;;;12.25;1.33;;;;;;;;;;6220215;23;20004;-96
2024/03/30 07:12:57;;;;;;;5.00;0.90;;;;;;;;;;6224088;23;20012;-96
2024/03/30 07:15:22;;;;;;;10.95;1.50;;;;;;;;;;6227688;23;20001;-96
2024/03/30 07:17:48;;;;;;;6.47;1.73;;;;;;;;;;6205399;23;20004;-96
2024/03/30 07:20:13;;;;;;;5.93;1.00;;;;;;;;;;6233871;23;20022;-96
2024/03/30 07:22:39;;;;;;;10.13;1.55;;;;;;;;;;6235089;23;20088;-96
2024/03/30 07:25:05;;;;;;;7.45;1.13;;;;;;;;;;6209943;23;20008;-96
2024/03/30 07:27:30;;;;;;;6.55;0.68;;;;;;;;;;6236676;23;20001;-96
2024/03/30 07:29:57;;;;;;;7.50;1.42;;;;;;;;;;6241077;23;20008;-96
2024/03/30 07:32:22;;;;;;;6.38;1.42;;;;;;;;;;6214490;23;20015;-96
2024/03/30 07:34:48;;;;;;;10.25;1.67;;;;;;;;;;6237588;23;20000;-96
2024/03/30 07:37:14;;;;;;;8.27;1.38;;;;;;;;;;6235932;23;20005;-96
2024/03/30 07:39:45;;;;;;;7.63;1.10;;;;;;;;;;6237958;23;20451;-96
2024/03/30 07:42:10;;;;;;;7.60;1.47;;;;;;;;;;6213645;23;19987;-96
2024/03/30 07:44:40;;;;;;;7.25;1.27;;;;;;;;;;6212212;23;20234;-96
2024/03/30 07:47:06;;;;;;;15.13;1.42;;;;;;;;;;6237631;23;20004;-96
2024/03/30 07:49:33;;;;;;;14.02;2.30;;;;;;;;;;6221960;23;20420;-96
2024/03/30 07:51:59;;;;;;;12.15;1.95;;;;;;;;;;6215929;23;20083;-96
2024/03/30 07:54:24;;;;;;;6.95;1.73;;;;;;;;;;6220384;23;20032;-96
2024/03/30 07:56:53;;;;;;;12.10;1.05;;;;;;;;;;6216882;23;20001;-95
2024/03/30 07:59:18;;;;;;;7.07;1.13;;;;;;;;;;6218629;23;20008;-92
2024/03/30 08:01:43;;;;;;;6.33;1.17;;;;;;;;;;6218803;23;20445;-94
2024/03/30 08:04:09;;;;;;;4.75;0.85;;;;;;;;;;6217425;23;20250;-95
2024/03/30 08:06:35;;;;;;;9.82;1.77;;;;;;;;;;6220098;23;20005;-96
2024/03/30 08:09:03;;;;;;;9.35;1.17;;;;;;;;;;6223598;23;20072;-96
2024/03/30 08:11:30;;;;;;;9.52;1.63;;;;;;;;;;6220650;23;20001;-96
2024/03/30 08:13:56;;;;;;;9.13;1.42;;;;;;;;;;6217440;23;19996;-96
2024/03/30 08:16:21;;;;;;;14.18;1.27;;;;;;;;;;6219044;23;20446;-95
2024/03/30 08:18:55;;;;;;;10.55;2.78;;;;;;;;;;6218812;23;20000;-96
2024/03/30 08:21:23;;;;;;;11.60;2.40;;;;;;;;;;6217648;23;20011;-96
2024/03/30 08:23:50;;;;;;;8.73;1.60;;;;;;;;;;6218965;23;20000;-94
2024/03/30 08:26:16;;;;;;;8.02;1.75;;;;;;;;;;6225036;23;20004;-96
2024/03/30 08:28:41;;;;;;;7.70;1.10;;;;;;;;;;6223428;23;19996;-95
2024/03/30 08:31:07;;;;;;;7.82;2.10;;;;;;;;;;6218695;23;20411;-96
2024/03/30 08:33:32;;;;;;;12.75;1.52;;;;;;;;;;6223034;23;20044;-96
2024/03/30 08:36:07;;;;;;;13.20;1.75;;;;;;;;;;6224462;23;20020;-96
2024/03/30 08:41:26;;;;;;;9.23;1.55;;;;;;;;;;6223081;23;20020;-96
2024/03/30 08:44:04;;;;;;;7.32;1.33;;;;;;;;;;6207289;23;20087;-96
2024/03/30 08:49:09;;;;;;;7.38;1.52;;;;;;;;;;6191641;23;20016;-95
2024/03/30 08:54:14;;;;;;;13.05;1.95;;;;;;;;;;6201924;23;20005;-96
2024/03/30 08:56:47;;;;;;;10.73;2.28;;;;;;;;;;6195729;23;20003;-95
2024/03/30 08:59:13;;;;;;;16.45;1.80;;;;;;;;;;6219533;23;20020;-94
2024/03/30 09:01:38;;;;;;;8.05;1.55;;;;;;;;;;6217433;23;20011;-96
2024/03/30 09:09:11;;;;;;;13.43;2.00;;;;;;;;;;6187769;23;19916;-93
2024/03/30 09:11:39;;;;;;;9.93;2.10;;;;;;;;;;6159910;23;20007;-96
2024/03/30 09:14:05;;;;;;;11.45;2.35;;;;;;;;;;6159219;23;20088;-94
2024/03/30 09:16:30;;;;;;;9.85;1.45;;;;;;;;;;6184872;23;20000;-92
2024/03/30 09:18:55;;;;;;;8.83;1.40;;;;;;;;;;6184588;23;20004;-94
2024/03/30 09:21:21;;;;;;;7.00;1.33;;;;;;;;;;6160209;23;20219;-94
2024/03/30 09:23:46;;;;;;;7.40;1.15;;;;;;;;;;6189895;23;20298;-96
2024/03/30 09:26:11;;;;;;;8.70;1.95;;;;;;;;;;6170092;23;19997;-96
2024/03/30 09:28:49;;;;;;;9.77;2.30;;;;;;;;;;6176254;23;20005;-96
2024/03/30 09:31:37;;;;;;;;;;;;;;;;;;;;;
2024/03/30 09:34:06;;;;;;;15.57;1.90;;;;;;;;;;6161652;23;20048;-96
2024/03/30 09:36:35;;;;;;;10.63;1.90;;;;;;;;;;6167060;23;20092;-95
2024/03/30 09:39:01;;;;;;;6.40;1.20;;;;;;;;;;6198336;23;20013;-96
2024/03/30 09:41:26;;;;;;;8.77;1.17;;;;;;;;;;6192577;23;19997;-95
2024/03/30 09:43:52;;;;;;;13.85;1.67;;;;;;;;;;6190187;23;20047;-96
2024/03/30 09:46:18;;;;;;;7.95;1.45;;;;;;;;;;6188689;23;20083;-96
2024/03/30 09:48:45;;;;;;;9.00;2.22;;;;;;;;;;6215166;23;20003;-96
2024/03/30 09:51:11;;;;;;;9.15;1.50;;;;;;;;;;6216809;23;20000;-96
2024/03/30 09:53:38;;;;;;;10.20;1.35;;;;;;;;;;6217997;23;20001;-95
2024/03/30 09:56:04;;;;;;;6.60;1.55;;;;;;;;;;6217149;23;20000;-96
2024/03/30 09:58:30;;;;;;;11.02;1.30;;;;;;;;;;6222690;23;20005;-96
2024/03/30 10:00:57;;;;;;;6.43;1.00;;;;;;;;;;6192320;23;20008;-96
2024/03/30 10:03:22;;;;;;;6.80;1.20;;;;;;;;;;6216341;23;20007;-94
2024/03/30 10:05:48;;;;;;;7.45;1.27;;;;;;;;;;6187215;23;19989;-93
2024/03/30 10:08:14;;;;;;;8.27;1.38;;;;;;;;;;6212944;23;20088;-94
2024/03/30 10:10:41;;;;;;;6.88;1.35;;;;;;;;;;6217527;23;20012;-96
2024/03/30 10:13:20;;;;;;;6.90;1.35;;;;;;;;;;6212074;23;20059;-96
2024/03/30 10:15:46;;;;;;;6.57;1.25;;;;;;;;;;6211600;23;20007;-95
2024/03/30 10:18:14;;;;;;;6.38;1.13;;;;;;;;;;6213512;23;19996;-96
2024/03/30 10:20:39;;;;;;;7.53;1.00;;;;;;;;;;6214049;23;20007;-95
2024/03/30 10:23:05;;;;;;;3.33;0.77;;;;;;;;;;6214444;23;20083;-95
2024/03/30 10:25:31;;;;;;;6.70;1.02;;;;;;;;;;6214227;23;20063;-95
2024/03/30 10:27:56;;;;;;;10.18;1.55;;;;;;;;;;6213727;23;20346;-95
2024/03/30 10:30:22;;;;;;;7.15;1.23;;;;;;;;;;6213966;23;20301;-96
2024/03/30 10:32:47;;;;;;;6.25;1.58;;;;;;;;;;6213749;23;20005;-94
2024/03/30 10:35:19;;;;;;;8.73;1.50;;;;;;;;;;6213889;23;20004;-95
2024/03/30 10:37:45;;;;;;;11.07;1.20;;;;;;;;;;6213802;23;19992;-95
2024/03/30 10:40:11;;;;;;;9.60;1.67;;;;;;;;;;6212845;23;20067;-95
2024/03/30 10:42:38;;;;;;;6.13;0.90;;;;;;;;;;6213695;23;19993;-96
2024/03/30 10:45:03;;;;;;;8.43;1.48;;;;;;;;;;6213912;23;20527;-96
2024/03/30 10:47:29;;;;;;;7.97;1.00;;;;;;;;;;6213432;23;19996;-95
2024/03/30 10:49:55;;;;;;;8.25;1.23;;;;;;;;;;6213869;23;20127;-94
2024/03/30 10:52:20;;;;;;;8.00;0.90;;;;;;;;;;6213344;23;19992;-94
2024/03/30 10:54:46;;;;;;;4.90;0.50;;;;;;;;;;6214987;23;20050;-95
2024/03/30 10:57:11;;;;;;;8.75;1.20;;;;;;;;;;6213855;23;20000;-95
2024/03/30 10:59:41;;;;;;;6.30;0.65;;;;;;;;;;6213848;23;20004;-94
2024/03/30 11:02:14;;;;;;;5.78;1.13;;;;;;;;;;6213471;23;20005;-94
2024/03/30 11:04:40;;;;;;;5.18;0.63;;;;;;;;;;6214791;23;20000;-94
2024/03/30 11:07:05;;;;;;;4.75;0.88;;;;;;;;;;6212885;23;20000;-94
2024/03/30 11:09:33;;;;;;;4.85;1.02;;;;;;;;;;6189902;23;20012;-95
2024/03/30 11:11:58;;;;;;;10.02;1.50;;;;;;;;;;6213077;23;20103;-93
2024/03/30 11:14:24;;;;;;;4.97;1.00;;;;;;;;;;6213382;23;20427;-94
2024/03/30 11:16:51;;;;;;;5.90;1.10;;;;;;;;;;6213559;23;20680;-94
2024/03/30 11:19:21;;;;;;;4.28;0.82;;;;;;;;;;6214700;23;20210;-94
2024/03/30 11:21:49;;;;;;;7.63;0.98;;;;;;;;;;6215910;23;20498;-93
2024/03/30 11:24:17;;;;;;;9.98;1.65;;;;;;;;;;6217015;23;20016;-95
2024/03/30 11:26:47;;;;;;;7.88;1.10;;;;;;;;;;6215234;23;20028;-95
2024/03/30 11:29:20;;;;;;;5.72;0.90;;;;;;;;;;6215387;23;19996;-95
2024/03/30 11:31:51;;;;;;;7.82;1.60;;;;;;;;;;6215990;23;20059;-94
2024/03/30 11:34:20;;;;;;;9.38;1.02;;;;;;;;;;6216199;23;19993;-95
2024/03/30 11:36:55;;;;;;;6.35;0.90;;;;;;;;;;6190772;23;20015;-94
2024/03/30 11:39:26;;;;;;;5.00;0.95;;;;;;;;;;6167348;23;20000;-94
2024/03/30 11:41:54;;;;;;;6.65;1.00;;;;;;;;;;6160901;23;20016;-95
2024/03/30 11:44:21;;;;;;;5.88;1.05;;;;;;;;;;6160465;23;20001;-95
2024/03/30 11:46:47;;;;;;;6.68;1.25;;;;;;;;;;6160043;23;20436;-94
2024/03/30 11:49:13;;;;;;;6.22;0.93;;;;;;;;;;6159832;23;20008;-95
2024/03/30 11:51:40;;;;;;;4.95;0.90;;;;;;;;;;6160482;23;20051;-95
2024/03/30 11:54:21;;;;;;;8.00;1.70;;;;;;;;;;6160345;23;20420;-95
2024/03/30 11:56:53;;;;;;;8.75;1.23;;;;;;;;;;6160423;23;20005;-94
2024/03/30 11:59:18;;;;;;;5.32;0.70;;;;;;;;;;6160254;23;19997;-94
2024/03/30 12:01:43;;;;;;;10.30;1.20;;;;;;;;;;6185374;23;20036;-95
2024/03/30 12:04:09;;;;;;;8.73;1.47;;;;;;;;;;6185191;23;20258;-93
2024/03/30 12:06:34;;;;;;;9.52;1.27;;;;;;;;;;6159489;23;20227;-94
2024/03/30 12:08:59;;;;;;;6.40;1.40;;;;;;;;;;6184294;23;19998;-94
2024/03/30 12:11:25;;;;;;;8.43;1.33;;;;;;;;;;6184156;23;20235;-94
2024/03/30 12:13:52;;;;;;;7.83;1.80;;;;;;;;;;6183957;23;19993;-94
2024/03/30 12:16:17;;;;;;;9.07;1.52;;;;;;;;;;6158886;23;20222;-93
2024/03/30 12:18:42;;;;;;;7.10;1.17;;;;;;;;;;6183987;23;20001;-94
2024/03/30 12:21:07;;;;;;;4.33;1.00;;;;;;;;;;6183996;23;20221;-94
2024/03/30 12:23:33;;;;;;;7.43;1.65;;;;;;;;;;6185412;23;20250;-94
2024/03/30 12:25:59;;;;;;;3.23;0.87;;;;;;;;;;6183683;23;20434;-94
2024/03/30 12:28:24;;;;;;;7.03;1.48;;;;;;;;;;6159086;23;20223;-94
2024/03/30 12:30:53;;;;;;;8.13;1.58;;;;;;;;;;6158714;23;20093;-93
2024/03/30 12:33:19;;;;;;;4.20;0.70;;;;;;;;;;6159202;23;19997;-94
2024/03/30 12:35:45;;;;;;;7.45;1.00;;;;;;;;;;6184972;23;20008;-93
2024/03/30 12:38:14;;;;;;;4.25;0.90;;;;;;;;;;6168219;23;20036;-94
2024/03/30 12:40:39;;;;;;;6.95;1.35;;;;;;;;;;6188517;23;19997;-94
2024/03/30 12:43:04;;;;;;;5.75;1.30;;;;;;;;;;6213675;23;20001;-95
2024/03/30 12:45:30;;;;;;;5.77;1.13;;;;;;;;;;6188679;23;20001;-93
2024/03/30 12:47:55;;;;;;;7.30;0.95;;;;;;;;;;6215135;23;20222;-93
2024/03/30 12:50:24;;;;;;;3.75;0.70;;;;;;;;;;6188383;23;20031;-94
2024/03/30 12:52:50;;;;;;;8.15;1.13;;;;;;;;;;6188720;23;20005;-93
2024/03/30 12:55:16;;;;;;;5.55;0.98;;;;;;;;;;6213622;23;20099;-94
2024/03/30 12:57:41;;;;;;;4.38;1.00;;;;;;;;;;6188548;23;20004;-93
2024/03/30 13:00:15;;;;;;;6.13;0.70;;;;;;;;;;6188723;23;19996;-94
2024/03/30 13:02:53;;;;;;;6.07;0.90;;;;;;;;;;6188505;23;20079;-93
2024/03/30 13:05:19;;;;;;;8.77;1.27;;;;;;;;;;6188597;23;20000;-94
2024/03/30 13:07:44;;;;;;;6.97;0.80;;;;;;;;;;6188770;23;20424;-94
2024/03/30 13:10:09;;;;;;;4.63;1.20;;;;;;;;;;6214749;23;20008;-94
2024/03/30 13:12:35;;;;;;;5.28;0.98;;;;;;;;;;6188242;23;20245;-94
2024/03/30 13:15:00;;;;;;;5.07;1.23;;;;;;;;;;6188299;23;20007;-94
2024/03/30 13:17:28;;;;;;;5.25;0.88;;;;;;;;;;6217575;23;19993;-92
2024/03/30 13:19:53;;;;;;;7.60;1.50;;;;;;;;;;6215558;23;20076;-94
2024/03/30 13:22:18;;;;;;;7.38;1.25;;;;;;;;;;6189094;23;20035;-93
2024/03/30 13:24:44;;;;;;;6.88;1.20;;;;;;;;;;6215890;23;20160;-93
2024/03/30 13:27:09;;;;;;;7.67;0.77;;;;;;;;;;6188683;23;20000;-92
2024/03/30 13:29:39;;;;;;;6.53;0.87;;;;;;;;;;6215307;23;20250;-94
2024/03/30 13:32:04;;;;;;;9.27;1.95;;;;;;;;;;6188552;23;20222;-93
2024/03/30 13:34:29;;;;;;;10.05;1.10;;;;;;;;;;6215836;23;19993;-93
2024/03/30 13:36:55;;;;;;;8.03;1.37;;;;;;;;;;6215034;23;20024;-92
2024/03/30 13:39:20;;;;;;;7.82;0.85;;;;;;;;;;6188662;23;20242;-93
2024/03/30 13:41:45;;;;;;;7.93;0.93;;;;;;;;;;6188864;23;20119;-94
2024/03/30 13:44:10;;;;;;;4.30;1.00;;;;;;;;;;6188322;23;20301;-93
2024/03/30 13:46:35;;;;;;;3.77;0.60;;;;;;;;;;6215423;23;20291;-91
2024/03/30 13:49:03;;;;;;;7.07;1.33;;;;;;;;;;6188735;23;20272;-93
2024/03/30 13:51:28;;;;;;;6.50;1.27;;;;;;;;;;6188566;23;20529;-92
2024/03/30 13:53:54;;;;;;;7.10;0.80;;;;;;;;;;6188253;23;20163;-93
2024/03/30 13:56:19;;;;;;;12.40;1.73;;;;;;;;;;6214396;23;20423;-92
2024/03/30 13:58:44;;;;;;;7.73;0.93;;;;;;;;;;6188733;23;20218;-92
2024/03/30 14:01:09;;;;;;;7.10;1.00;;;;;;;;;;6214891;23;20301;-92
2024/03/30 14:03:34;;;;;;;6.80;1.08;;;;;;;;;;6188442;23;20225;-92
2024/03/30 14:06:02;;;;;;;6.73;0.87;;;;;;;;;;6215045;23;20079;-92
2024/03/30 14:08:27;;;;;;;2.60;0.70;;;;;;;;;;6188539;23;20280;-93
2024/03/30 14:10:52;;;;;;;7.13;1.58;;;;;;;;;;6214885;23;20012;-93
2024/03/30 14:13:17;;;;;;;8.10;1.33;;;;;;;;;;6188430;23;20004;-92
2024/03/30 14:15:42;;;;;;;11.17;1.40;;;;;;;;;;6214881;23;20264;-92
2024/03/30 14:18:08;;;;;;;8.33;0.80;;;;;;;;;;6188223;23;20265;-92
2024/03/30 14:20:34;;;;;;;8.20;0.70;;;;;;;;;;6188619;23;20227;-92
2024/03/30 14:22:59;;;;;;;4.93;0.65;;;;;;;;;;6188460;23;20223;-91
2024/03/30 14:25:26;;;;;;;5.27;0.80;;;;;;;;;;6188449;23;19985;-92
2024/03/30 14:27:52;;;;;;;8.07;1.17;;;;;;;;;;6188384;23;20353;-91
2024/03/30 14:30:17;;;;;;;7.70;0.88;;;;;;;;;;6188260;23;20032;-93
2024/03/30 14:32:42;;;;;;;6.13;0.90;;;;;;;;;;6214361;23;19989;-93
2024/03/30 14:35:08;;;;;;;6.93;0.93;;;;;;;;;;6214812;23;20222;-93
2024/03/30 14:37:33;;;;;;;2.95;0.88;;;;;;;;;;6188221;23;20001;-92
2024/03/30 14:39:58;;;;;;;4.95;0.90;;;;;;;;;;6213914;23;20001;-92
2024/03/30 14:42:23;;;;;;;4.57;0.70;;;;;;;;;;6188567;23;20327;-92
2024/03/30 14:44:50;;;;;;;6.32;0.95;;;;;;;;;;6188646;23;19996;-92
2024/03/30 14:47:16;;;;;;;7.43;0.90;;;;;;;;;;6214765;23;20027;-92
2024/03/30 14:49:41;;;;;;;5.10;0.88;;;;;;;;;;6214700;23;20005;-92
2024/03/30 14:52:07;;;;;;;9.00;1.20;;;;;;;;;;6213761;23;20060;-92